createdAt,value
2023-06-27T00:01:51.132Z,20.00
2023-06-27T00:04:40.940Z,19.97
2023-06-27T00:07:30.488Z,19.93
2023-06-27T00:10:20.299Z,19.99
2023-06-27T00:13:17.398Z,19.96
2023-06-27T00:16:08.095Z,20.00
2023-06-27T00:18:57.685Z,19.92
2023-06-27T00:21:46.954Z,19.93
2023-06-27T00:24:36.230Z,19.97
2023-06-27T00:27:25.746Z,19.99
2023-06-27T00:30:16.798Z,20.02
2023-06-27T00:33:06.307Z,20.02
2023-06-27T00:35:55.654Z,20.09
2023-06-27T00:38:44.958Z,20.07
2023-06-27T00:41:36.197Z,20.17
2023-06-27T00:44:25.603Z,20.13
2023-06-27T00:47:16.481Z,20.08
2023-06-27T00:50:07.167Z,20.12
2023-06-27T00:52:58.217Z,20.09
2023-06-27T00:55:47.568Z,20.13
2023-06-27T00:58:36.899Z,20.10
2023-06-27T01:01:26.624Z,20.08
2023-06-27T01:04:17.316Z,20.05
2023-06-27T01:07:16.895Z,20.04
2023-06-27T01:10:15.215Z,19.89
2023-06-27T01:13:10.980Z,19.92
2023-06-27T01:16:01.499Z,19.81
2023-06-27T01:18:51.148Z,19.88
2023-06-27T01:21:45.130Z,19.77
2023-06-27T01:24:38.041Z,19.74
2023-06-27T01:27:28.553Z,19.77
2023-06-27T01:30:19.087Z,19.77
2023-06-27T01:33:13.897Z,19.67
2023-06-27T01:36:12.051Z,19.68
2023-06-27T01:39:07.177Z,19.59
2023-06-27T01:42:06.652Z,19.59
2023-06-27T01:44:56.937Z,19.60
2023-06-27T01:47:46.938Z,19.59
2023-06-27T01:50:36.664Z,19.47
2023-06-27T01:53:27.865Z,19.59
2023-06-27T01:56:17.236Z,19.55
2023-06-27T01:59:10.491Z,19.45
2023-06-27T02:01:59.902Z,19.49
2023-06-27T02:04:50.649Z,19.50
2023-06-27T02:07:40.042Z,19.59
2023-06-27T02:10:32.733Z,19.62
2023-06-27T02:13:23.703Z,19.59
2023-06-27T02:16:14.718Z,19.54
2023-06-27T02:19:05.755Z,19.58
2023-06-27T02:21:55.179Z,19.51
2023-06-27T02:24:44.444Z,19.58
2023-06-27T02:27:33.935Z,19.58
2023-06-27T02:30:23.392Z,19.56
2023-06-27T02:33:14.065Z,19.44
2023-06-27T02:36:03.351Z,19.52
2023-06-27T02:38:56.086Z,19.53
2023-06-27T02:41:45.535Z,19.48
2023-06-27T02:44:34.808Z,19.50
2023-06-27T02:47:25.238Z,19.41
2023-06-27T02:50:16.175Z,19.48
2023-06-27T02:53:06.100Z,19.46
2023-06-27T02:55:55.691Z,19.47
2023-06-27T02:58:45.116Z,19.39
2023-06-27T03:01:34.935Z,19.39
2023-06-27T03:04:25.553Z,19.35
2023-06-27T03:07:17.697Z,19.37
2023-06-27T03:10:08.561Z,19.32
2023-06-27T03:12:57.900Z,19.34
2023-06-27T03:15:47.258Z,19.34
2023-06-27T03:18:36.547Z,19.37
2023-06-27T03:21:25.899Z,19.32
2023-06-27T03:24:17.599Z,19.31
2023-06-27T03:27:11.776Z,19.27
2023-06-27T03:30:03.742Z,19.19
2023-06-27T03:32:54.184Z,19.14
2023-06-27T03:35:44.600Z,19.13
2023-06-27T03:38:34.348Z,19.13
2023-06-27T03:41:25.277Z,19.12
2023-06-27T03:44:14.610Z,19.04
2023-06-27T03:47:06.427Z,19.07
2023-06-27T03:49:55.826Z,19.06
2023-06-27T03:52:45.459Z,19.07
2023-06-27T03:55:35.349Z,18.95
2023-06-27T03:58:26.400Z,18.90
2023-06-27T04:01:15.829Z,18.81
2023-06-27T04:04:05.411Z,18.66
2023-06-27T04:06:55.976Z,18.58
2023-06-27T04:09:45.359Z,18.41
2023-06-27T04:12:34.736Z,18.34
2023-06-27T04:15:26.128Z,18.30
2023-06-27T04:18:15.524Z,18.17
2023-06-27T04:21:05.045Z,18.17
2023-06-27T04:23:55.619Z,18.19
2023-06-27T04:26:45.010Z,18.15
2023-06-27T04:29:34.261Z,18.17
2023-06-27T04:32:25.222Z,18.11
2023-06-27T04:35:17.323Z,18.15
2023-06-27T04:38:08.136Z,18.19
2023-06-27T04:40:57.603Z,18.24
2023-06-27T04:43:47.128Z,18.27
2023-06-27T04:46:36.468Z,18.30
2023-06-27T04:49:27.114Z,18.35
2023-06-27T04:52:16.323Z,18.39
2023-06-27T04:55:06.386Z,18.43
2023-06-27T04:57:55.817Z,18.47
2023-06-27T05:00:45.715Z,18.47
2023-06-27T05:03:35.871Z,18.32
2023-06-27T05:06:27.951Z,18.53
2023-06-27T05:09:17.217Z,18.57
2023-06-27T05:12:07.718Z,18.61
2023-06-27T05:14:57.011Z,18.58
2023-06-27T05:17:54.805Z,18.58
2023-06-27T05:20:44.622Z,18.62
2023-06-27T05:23:35.388Z,18.68
2023-06-27T05:26:24.656Z,18.73
2023-06-27T05:29:13.910Z,18.77
2023-06-27T05:32:03.232Z,18.83
2023-06-27T05:34:52.603Z,18.88
2023-06-27T05:37:41.972Z,18.84
2023-06-27T05:40:32.652Z,18.87
2023-06-27T05:43:21.958Z,18.90
2023-06-27T05:46:11.278Z,18.81
2023-06-27T05:49:00.576Z,18.91
2023-06-27T05:51:49.844Z,18.95
2023-06-27T05:54:39.185Z,18.91
2023-06-27T05:57:29.911Z,19.03
2023-06-27T06:00:22.193Z,19.00
2023-06-27T06:03:11.641Z,19.05
2023-06-27T06:06:01.138Z,19.07
2023-06-27T06:08:50.523Z,19.05
2023-06-27T06:11:39.802Z,19.12
2023-06-27T06:14:30.742Z,19.26
2023-06-27T06:17:20.148Z,19.31
2023-06-27T06:20:12.155Z,19.35
2023-06-27T06:23:01.515Z,19.37
2023-06-27T06:25:51.219Z,19.46
2023-06-27T06:28:40.614Z,19.50
2023-06-27T06:31:31.509Z,19.52
2023-06-27T06:34:20.861Z,19.64
2023-06-27T06:37:10.298Z,19.69
2023-06-27T06:39:59.629Z,19.82
2023-06-27T06:42:49.098Z,19.84
2023-06-27T06:45:38.460Z,19.83
2023-06-27T06:48:29.432Z,19.88
2023-06-27T06:51:18.828Z,19.73
2023-06-27T06:54:08.115Z,19.89
2023-06-27T06:56:57.397Z,19.91
2023-06-27T06:59:47.601Z,19.88
2023-06-27T07:02:37.188Z,19.85
2023-06-27T07:05:27.911Z,19.80
2023-06-27T07:08:17.316Z,19.90
2023-06-27T07:11:06.651Z,19.95
2023-06-27T07:13:56.034Z,20.00
2023-06-27T07:16:45.394Z,19.96
2023-06-27T07:19:34.690Z,19.99
2023-06-27T07:22:25.404Z,20.11
2023-06-27T07:25:14.818Z,19.79
2023-06-27T07:28:04.557Z,20.09
2023-06-27T07:30:53.980Z,20.15
2023-06-27T07:33:43.441Z,20.24
2023-06-27T07:36:32.832Z,20.21
2023-06-27T07:39:23.892Z,20.19
2023-06-27T07:42:13.713Z,20.30
2023-06-27T07:45:03.028Z,20.32
2023-06-27T07:47:53.026Z,20.36
2023-06-27T07:50:42.689Z,20.48
2023-06-27T07:53:32.240Z,20.36
2023-06-27T07:56:23.138Z,20.43
2023-06-27T07:59:14.652Z,20.60
2023-06-27T08:02:05.471Z,20.64
2023-06-27T08:04:54.871Z,20.60
2023-06-27T08:07:44.194Z,20.74
2023-06-27T08:10:33.466Z,20.78
2023-06-27T08:13:25.572Z,20.85
2023-06-27T08:16:15.017Z,20.97
2023-06-27T08:19:04.488Z,21.09
2023-06-27T08:21:53.802Z,21.19
2023-06-27T08:24:43.109Z,21.20
2023-06-27T08:27:32.796Z,21.52
2023-06-27T08:30:23.707Z,21.64
2023-06-27T08:33:13.125Z,21.72
2023-06-27T08:36:02.719Z,21.78
2023-06-27T08:38:52.052Z,21.85
2023-06-27T08:41:41.455Z,21.75
2023-06-27T08:44:30.917Z,21.75
2023-06-27T08:47:24.534Z,21.72
2023-06-27T08:50:16.231Z,21.75
2023-06-27T08:53:09.789Z,21.70
2023-06-27T08:56:04.394Z,21.68
2023-06-27T08:59:01.465Z,21.62
2023-06-27T09:01:52.212Z,21.73
2023-06-27T09:04:44.140Z,21.59
2023-06-27T09:07:34.581Z,21.38
2023-06-27T09:10:24.463Z,21.65
2023-06-27T09:13:14.971Z,21.70
2023-06-27T09:16:04.346Z,21.79
2023-06-27T09:18:55.934Z,21.84
2023-06-27T09:21:50.900Z,21.82
2023-06-27T09:24:43.361Z,21.90
2023-06-27T09:27:35.454Z,21.81
2023-06-27T09:30:25.839Z,21.88
2023-06-27T09:33:21.475Z,21.91
2023-06-27T09:36:10.959Z,21.93
2023-06-27T09:39:05.099Z,22.00
2023-06-27T09:41:54.697Z,22.01
2023-06-27T09:44:44.264Z,22.12
2023-06-27T09:47:33.927Z,22.22
2023-06-27T09:50:27.755Z,22.21
2023-06-27T09:53:17.180Z,22.28
2023-06-27T09:56:08.075Z,22.34
2023-06-27T09:59:00.180Z,22.46
2023-06-27T10:01:55.173Z,22.51
2023-06-27T10:04:44.869Z,22.65
2023-06-27T10:07:34.650Z,22.71
2023-06-27T10:10:28.351Z,22.74
2023-06-27T10:13:19.505Z,22.90
2023-06-27T10:16:10.143Z,22.87
2023-06-27T10:18:59.711Z,22.94
2023-06-27T10:21:49.722Z,23.12
2023-06-27T10:24:43.086Z,23.15
2023-06-27T10:27:36.967Z,23.31
2023-06-27T10:30:28.246Z,23.22
2023-06-27T10:33:29.370Z,23.33
2023-06-27T10:36:19.086Z,23.19
2023-06-27T10:39:30.655Z,23.23
2023-06-27T10:42:31.023Z,23.10
2023-06-27T10:45:20.398Z,23.04
2023-06-27T10:48:11.186Z,23.01
2023-06-27T10:51:07.957Z,22.99
2023-06-27T10:54:18.940Z,22.90
2023-06-27T10:57:08.343Z,22.99
2023-06-27T11:00:14.999Z,23.12
2023-06-27T11:03:07.933Z,23.14
2023-06-27T11:06:02.330Z,23.12
2023-06-27T11:08:58.055Z,23.34
2023-06-27T11:11:58.171Z,23.36
2023-06-27T11:14:49.335Z,23.45
2023-06-27T11:17:42.077Z,23.50
2023-06-27T11:20:31.854Z,23.47
2023-06-27T11:23:23.690Z,23.35
2023-06-27T11:26:13.040Z,23.37
2023-06-27T11:29:05.380Z,23.28
2023-06-27T11:31:56.564Z,23.27
2023-06-27T11:34:45.957Z,23.16
2023-06-27T11:37:35.409Z,23.20
2023-06-27T11:40:27.045Z,23.12
2023-06-27T11:43:16.821Z,23.16
2023-06-27T11:46:06.123Z,23.17
2023-06-27T11:48:55.518Z,23.26
2023-06-27T11:51:45.279Z,23.30
2023-06-27T11:54:35.556Z,23.22
2023-06-27T11:57:26.451Z,23.30
2023-06-27T12:00:20.806Z,23.19
2023-06-27T12:03:11.641Z,23.27
2023-06-27T12:06:01.208Z,23.06
2023-06-27T12:08:50.644Z,23.20
2023-06-27T12:11:40.073Z,23.18
2023-06-27T12:14:31.091Z,23.13
2023-06-27T12:17:23.857Z,23.00
2023-06-27T12:20:13.881Z,23.16
2023-06-27T12:23:03.293Z,23.35
2023-06-27T12:25:52.816Z,23.31
2023-06-27T12:28:57.710Z,23.28
2023-06-27T12:31:48.456Z,23.40
2023-06-27T12:34:37.824Z,23.51
2023-06-27T12:37:28.643Z,23.79
2023-06-27T12:40:19.310Z,23.87
2023-06-27T12:43:09.053Z,24.09
2023-06-27T12:46:02.952Z,24.07
2023-06-27T12:48:53.957Z,24.05
2023-06-27T12:51:43.298Z,24.03
2023-06-27T12:54:32.606Z,24.12
2023-06-27T12:57:21.948Z,24.12
2023-06-27T13:00:13.377Z,24.07
2023-06-27T13:03:15.848Z,24.11
2023-06-27T13:06:08.365Z,24.33
2023-06-27T13:08:57.754Z,24.57
2023-06-27T13:11:47.072Z,24.70
2023-06-27T13:14:36.373Z,24.90
2023-06-27T13:17:25.926Z,25.03
2023-06-27T13:20:15.992Z,25.07
2023-06-27T13:23:07.610Z,25.12
2023-06-27T13:25:57.098Z,24.95
2023-06-27T13:28:46.486Z,25.09
2023-06-27T13:31:36.123Z,24.92
2023-06-27T13:34:25.641Z,24.83
2023-06-27T13:37:15.040Z,24.90
2023-06-27T13:40:07.313Z,24.44
2023-06-27T13:42:56.615Z,24.87
2023-06-27T13:45:48.188Z,25.12
2023-06-27T13:48:37.741Z,25.53
2023-06-27T13:51:26.992Z,25.74
2023-06-27T13:54:16.229Z,26.06
2023-06-27T13:57:07.199Z,26.19
2023-06-27T13:59:56.562Z,26.20
2023-06-27T14:02:45.932Z,26.30
2023-06-27T14:05:55.442Z,26.43
2023-06-27T14:08:45.021Z,26.42
2023-06-27T14:11:34.284Z,26.42
2023-06-27T14:14:25.743Z,26.30
2023-06-27T14:17:15.075Z,26.35
2023-06-27T14:20:04.881Z,26.33
2023-06-27T14:22:55.170Z,26.57
2023-06-27T14:25:44.636Z,26.92
2023-06-27T14:28:34.318Z,27.13
2023-06-27T14:31:26.157Z,26.93
2023-06-27T14:34:15.609Z,26.81
2023-06-27T14:37:05.293Z,26.93
2023-06-27T14:39:56.294Z,27.19
2023-06-27T14:42:45.694Z,27.40
2023-06-27T14:45:35.091Z,27.48
2023-06-27T14:48:25.802Z,27.31
2023-06-27T14:51:15.108Z,27.46
2023-06-27T14:54:04.554Z,27.66
2023-06-27T14:56:53.904Z,27.87
2023-06-27T14:59:43.248Z,28.16
2023-06-27T15:02:32.608Z,28.23
2023-06-27T15:05:29.291Z,28.18
2023-06-27T15:08:18.745Z,28.19
2023-06-27T15:11:08.158Z,28.00
2023-06-27T15:14:00.235Z,27.87
2023-06-27T15:16:49.613Z,27.71
2023-06-27T15:19:38.941Z,27.51
2023-06-27T15:22:29.779Z,27.29
2023-06-27T15:25:19.115Z,27.04
2023-06-27T15:28:08.488Z,26.95
2023-06-27T15:30:57.875Z,26.92
2023-06-27T15:33:47.606Z,27.01
2023-06-27T15:36:37.643Z,27.06
2023-06-27T15:39:29.097Z,27.02
2023-06-27T15:42:18.470Z,26.96
2023-06-27T15:45:10.142Z,26.86
2023-06-27T15:48:00.267Z,26.72
2023-06-27T15:50:49.830Z,26.61
2023-06-27T15:53:39.155Z,26.46
2023-06-27T15:56:29.919Z,26.21
2023-06-27T15:59:19.320Z,26.20
2023-06-27T16:02:08.858Z,26.32
2023-06-27T16:04:58.518Z,26.32
2023-06-27T16:07:48.268Z,26.28
2023-06-27T16:10:37.694Z,26.13
2023-06-27T16:13:28.532Z,26.11
2023-06-27T16:16:18.164Z,26.08
2023-06-27T16:19:08.284Z,25.97
2023-06-27T16:21:57.583Z,25.89
2023-06-27T16:24:46.983Z,25.59
2023-06-27T16:27:36.354Z,25.66
2023-06-27T16:30:27.152Z,25.64
2023-06-27T16:33:16.584Z,25.53
2023-06-27T16:36:06.391Z,25.32
2023-06-27T16:38:55.665Z,25.42
2023-06-27T16:41:44.980Z,25.27
2023-06-27T16:44:34.403Z,25.23
2023-06-27T16:47:25.943Z,25.30
2023-06-27T16:50:15.476Z,25.31
2023-06-27T16:53:04.856Z,25.31
2023-06-27T16:55:54.215Z,25.33
2023-06-27T16:58:43.568Z,25.32
2023-06-27T17:01:33.381Z,25.31
2023-06-27T17:04:24.212Z,25.28
2023-06-27T17:07:13.568Z,25.28
2023-06-27T17:10:03.001Z,25.32
2023-06-27T17:12:52.567Z,25.19
2023-06-27T17:15:43.730Z,25.23
2023-06-27T17:18:33.244Z,25.19
2023-06-27T17:21:24.065Z,25.05
2023-06-27T17:24:13.405Z,25.06
2023-06-27T17:27:05.910Z,25.10
2023-06-27T17:29:55.295Z,25.10
2023-06-27T17:32:47.130Z,25.02
2023-06-27T17:35:36.660Z,25.10
2023-06-27T17:38:27.656Z,25.00
2023-06-27T17:41:16.971Z,24.93
2023-06-27T17:44:06.597Z,24.81
2023-06-27T17:46:56.125Z,24.91
2023-06-27T17:49:45.561Z,24.88
2023-06-27T17:52:35.009Z,24.78
2023-06-27T17:55:25.943Z,24.75
2023-06-27T17:58:15.360Z,24.86
2023-06-27T18:01:06.148Z,24.84
2023-06-27T18:03:55.565Z,24.81
2023-06-27T18:06:45.086Z,24.78
2023-06-27T18:09:34.552Z,24.81
2023-06-27T18:12:30.907Z,24.87
2023-06-27T18:15:20.222Z,24.93
2023-06-27T18:18:10.997Z,24.81
2023-06-27T18:21:00.372Z,24.75
2023-06-27T18:23:49.669Z,24.75
2023-06-27T18:26:39.008Z,24.68
2023-06-27T18:29:29.759Z,24.62
2023-06-27T18:32:19.403Z,24.79
2023-06-27T18:35:09.728Z,24.74
2023-06-27T18:37:59.712Z,24.79
2023-06-27T18:40:49.197Z,24.75
2023-06-27T18:43:38.716Z,24.64
2023-06-27T18:46:31.059Z,24.55
2023-06-27T18:49:20.483Z,24.54
2023-06-27T18:52:10.608Z,24.51
2023-06-27T18:55:00.465Z,24.43
2023-06-27T18:57:50.438Z,24.36
2023-06-27T19:00:41.352Z,24.40
2023-06-27T19:03:32.958Z,24.43
2023-06-27T19:06:31.161Z,24.25
2023-06-27T19:09:21.634Z,24.24
2023-06-27T19:12:11.876Z,24.24
2023-06-27T19:15:01.314Z,24.24
2023-06-27T19:17:52.153Z,24.19
2023-06-27T19:20:43.636Z,24.08
2023-06-27T19:23:33.928Z,24.00
2023-06-27T19:26:23.493Z,23.90
2023-06-27T19:29:13.495Z,23.85
2023-06-27T19:32:02.860Z,23.88
2023-06-27T19:34:52.208Z,23.79
2023-06-27T19:37:42.975Z,23.86
2023-06-27T19:40:32.314Z,23.90
2023-06-27T19:43:21.706Z,23.87
2023-06-27T19:46:11.047Z,23.77
2023-06-27T19:49:00.438Z,23.79
2023-06-27T19:51:49.720Z,23.75
2023-06-27T19:54:40.468Z,23.79
2023-06-27T19:57:29.845Z,23.73
2023-06-27T20:00:20.297Z,23.66
2023-06-27T20:03:09.747Z,23.69
2023-06-27T20:05:59.221Z,23.71
2023-06-27T20:08:49.377Z,23.70
2023-06-27T20:11:40.040Z,23.75
2023-06-27T20:14:29.327Z,23.77
2023-06-27T20:17:18.932Z,23.76
2023-06-27T20:20:10.256Z,23.71
2023-06-27T20:22:59.835Z,23.68
2023-06-27T20:25:49.488Z,23.70
2023-06-27T20:28:40.297Z,23.64
2023-06-27T20:31:29.783Z,23.65
2023-06-27T20:34:21.964Z,23.58
2023-06-27T20:37:11.403Z,23.42
2023-06-27T20:40:00.888Z,23.50
2023-06-27T20:42:50.209Z,23.59
2023-06-27T20:45:42.051Z,23.45
2023-06-27T20:48:31.544Z,23.38
2023-06-27T20:51:21.540Z,23.26
2023-06-27T20:54:10.853Z,23.36
2023-06-27T20:57:00.238Z,23.29
2023-06-27T20:59:49.545Z,23.25
2023-06-27T21:02:40.531Z,23.26
2023-06-27T21:05:29.922Z,23.29
2023-06-27T21:08:19.528Z,23.20
2023-06-27T21:11:08.831Z,23.21
2023-06-27T21:13:58.279Z,23.21
2023-06-27T21:16:47.655Z,23.21
2023-06-27T21:19:38.854Z,23.20
2023-06-27T21:22:28.189Z,23.16
2023-06-27T21:25:18.250Z,23.19
2023-06-27T21:28:07.675Z,23.12
2023-06-27T21:30:57.053Z,23.13
2023-06-27T21:33:47.516Z,23.04
2023-06-27T21:36:38.315Z,22.96
2023-06-27T21:39:27.683Z,23.00
2023-06-27T21:42:17.171Z,22.64
2023-06-27T21:45:07.773Z,22.93
2023-06-27T21:47:57.171Z,22.93
2023-06-27T21:50:46.931Z,22.85
2023-06-27T21:53:39.536Z,22.82
2023-06-27T21:56:28.844Z,22.84
2023-06-27T21:59:18.403Z,22.88
2023-06-27T22:02:08.200Z,22.86
2023-06-27T22:04:57.566Z,22.87
2023-06-27T22:07:50.521Z,22.82
2023-06-27T22:10:42.077Z,22.87
2023-06-27T22:13:32.006Z,22.92
2023-06-27T22:16:22.606Z,22.78
2023-06-27T22:19:12.415Z,22.79
2023-06-27T22:22:01.983Z,22.76
2023-06-27T22:24:54.320Z,22.70
2023-06-27T22:27:45.458Z,22.64
2023-06-27T22:30:35.095Z,22.64
2023-06-27T22:33:24.493Z,22.63
2023-06-27T22:36:13.837Z,22.40
2023-06-27T22:39:03.279Z,22.46
2023-06-27T22:41:52.523Z,22.35
2023-06-27T22:44:43.285Z,22.34
2023-06-27T22:47:33.267Z,22.33
2023-06-27T22:50:22.723Z,22.31
2023-06-27T22:53:12.703Z,22.24
2023-06-27T22:56:02.027Z,22.28
2023-06-27T22:58:51.532Z,22.31
2023-06-27T23:01:42.221Z,22.38
2023-06-27T23:04:31.722Z,22.39
2023-06-27T23:07:21.110Z,22.42
2023-06-27T23:13:00.654Z,22.44
2023-06-27T23:15:50.080Z,22.39
2023-06-27T23:18:42.091Z,22.39
2023-06-27T23:21:34.232Z,22.42
2023-06-27T23:24:28.296Z,22.40
2023-06-27T23:27:17.721Z,22.38
2023-06-27T23:30:09.666Z,22.36
2023-06-27T23:32:59.039Z,22.32
2023-06-27T23:35:50.437Z,22.26
2023-06-27T23:38:39.834Z,22.28
2023-06-27T23:41:29.283Z,22.31
2023-06-27T23:44:18.556Z,22.25
2023-06-27T23:47:08.680Z,22.26
2023-06-27T23:49:58.082Z,22.30
2023-06-27T23:52:48.972Z,22.36
2023-06-27T23:55:38.528Z,22.33
